Time;durP1;ratioP1;P1;durP2;ratioP2;P2;SDS_P1;SDS_P2;PMS_P1;PMS_P2;Temp;Humidity;BMP_temperature;BMP_pressure;BME280_temperature;BME280_humidity;BME280_pressure;Samples;Min_cycle;Max_cycle;Signal;HPM_P1;HPM_P2
2021/07/09 00:01:40;;;;;;;22.87;14.30;;;;;;;;;;4392831;32;20515;-83
2021/07/09 00:04:05;;;;;;;20.25;12.75;;;;;;;;;;4393514;32;20134;-84
2021/07/09 00:06:31;;;;;;;22.42;14.48;;;;;;;;;;4379058;32;20224;-85
2021/07/09 00:08:56;;;;;;;17.87;11.73;;;;;;;;;;4392731;32;20193;-83
2021/07/09 00:11:21;;;;;;;24.02;14.23;;;;;;;;;;4392462;32;20154;-84
2021/07/09 00:13:47;;;;;;;22.23;13.18;;;;;;;;;;4392508;32;20448;-83
2021/07/09 00:16:13;;;;;;;22.37;13.13;;;;;;;;;;4392777;32;20491;-81
2021/07/09 00:18:39;;;;;;;24.58;14.10;;;;;;;;;;4392430;32;20162;-84
2021/07/09 00:21:07;;;;;;;22.08;13.27;;;;;;;;;;4378562;32;20470;-82
2021/07/09 00:23:33;;;;;;;25.67;14.40;;;;;;;;;;4377736;32;20162;-82
2021/07/09 00:26:01;;;;;;;21.95;13.73;;;;;;;;;;4392524;32;20146;-81
2021/07/09 00:28:26;;;;;;;18.62;11.07;;;;;;;;;;4393219;32;20143;-81
2021/07/09 00:30:52;;;;;;;23.52;13.75;;;;;;;;;;4391932;32;20185;-82
2021/07/09 00:33:17;;;;;;;21.52;12.57;;;;;;;;;;4392747;32;20511;-81
2021/07/09 00:35:43;;;;;;;22.75;12.80;;;;;;;;;;4391824;32;20508;-82
2021/07/09 00:38:08;;;;;;;20.40;13.40;;;;;;;;;;4391295;32;20513;-81
2021/07/09 00:40:38;;;;;;;23.12;13.62;;;;;;;;;;4392400;32;20216;-81
2021/07/09 00:43:04;;;;;;;20.80;13.27;;;;;;;;;;4392030;32;20597;-81
2021/07/09 00:45:33;;;;;;;22.30;13.90;;;;;;;;;;4391457;32;20162;-81
2021/07/09 00:47:58;;;;;;;22.83;13.88;;;;;;;;;;4391800;32;20245;-81
2021/07/09 00:50:23;;;;;;;23.77;14.52;;;;;;;;;;4391685;32;20535;-81
2021/07/09 00:52:51;;;;;;;30.05;14.75;;;;;;;;;;4391918;32;20161;-81
2021/07/09 00:55:24;;;;;;;27.33;15.35;;;;;;;;;;4385959;32;20170;-81
2021/07/09 00:57:53;;;;;;;24.23;14.95;;;;;;;;;;4378294;32;20208;-81
2021/07/09 01:00:20;;;;;;;25.62;15.65;;;;;;;;;;4377633;32;20220;-81
2021/07/09 01:02:48;;;;;;;27.23;16.08;;;;;;;;;;4391309;32;20160;-81
2021/07/09 01:05:23;;;;;;;29.33;17.77;;;;;;;;;;4398011;32;20566;-81
2021/07/09 01:07:51;;;;;;;32.28;17.25;;;;;;;;;;4406180;32;20220;-81
2021/07/09 01:10:18;;;;;;;31.73;16.67;;;;;;;;;;4393004;32;20158;-81
2021/07/09 01:12:52;;;;;;;30.70;16.15;;;;;;;;;;4390024;32;20153;-81
2021/07/09 01:15:35;;;;;;;30.88;16.30;;;;;;;;;;4391914;32;20154;-81
2021/07/09 01:18:04;;;;;;;29.77;17.30;;;;;;;;;;4391812;32;20579;-81
2021/07/09 01:20:29;;;;;;;33.40;18.00;;;;;;;;;;4406381;32;20544;-81
2021/07/09 01:22:58;;;;;;;33.47;18.77;;;;;;;;;;4406415;32;20153;-81
2021/07/09 01:25:54;;;;;;;26.85;15.45;;;;;;;;;;4406568;32;20138;-81
2021/07/09 01:28:22;;;;;;;34.75;18.70;;;;;;;;;;4406740;32;20130;-81
2021/07/09 01:30:47;;;;;;;28.23;16.17;;;;;;;;;;4406034;32;20127;-81
2021/07/09 01:33:26;;;;;;;26.90;14.98;;;;;;;;;;4406399;32;20570;-81
2021/07/09 01:36:06;;;;;;;26.65;15.38;;;;;;;;;;4404360;32;20154;-81
2021/07/09 01:38:35;;;;;;;26.75;15.40;;;;;;;;;;4392576;32;20170;-81
2021/07/09 01:41:00;;;;;;;25.02;14.90;;;;;;;;;;4406559;32;20215;-81
2021/07/09 01:43:32;;;;;;;28.55;16.37;;;;;;;;;;4406257;32;20558;-81
2021/07/09 01:46:09;;;;;;;26.90;15.65;;;;;;;;;;4406214;32;20538;-80
2021/07/09 01:48:40;;;;;;;29.08;16.00;;;;;;;;;;4406512;32;20165;-81
2021/07/09 01:51:05;;;;;;;26.08;14.95;;;;;;;;;;4406564;32;20126;-80
2021/07/09 01:53:54;;;;;;;28.05;16.90;;;;;;;;;;4392109;32;20170;-81
2021/07/09 01:56:19;;;;;;;27.73;15.57;;;;;;;;;;4395944;32;20675;-80
2021/07/09 01:58:44;;;;;;;32.65;17.48;;;;;;;;;;4391335;32;20220;-80
2021/07/09 02:01:10;;;;;;;30.23;16.70;;;;;;;;;;4391527;32;20543;-81
2021/07/09 02:03:35;;;;;;;25.12;14.95;;;;;;;;;;4390702;32;20134;-80
2021/07/09 02:06:01;;;;;;;28.45;15.45;;;;;;;;;;4390345;32;20216;-81
2021/07/09 02:08:26;;;;;;;28.45;16.40;;;;;;;;;;4390400;32;20253;-81
2021/07/09 02:10:54;;;;;;;29.73;15.32;;;;;;;;;;4389300;32;20193;-80
2021/07/09 02:13:20;;;;;;;28.27;15.88;;;;;;;;;;4390818;32;20558;-80
2021/07/09 02:15:46;;;;;;;31.45;17.52;;;;;;;;;;4390889;32;20165;-80
2021/07/09 02:18:12;;;;;;;25.92;15.30;;;;;;;;;;4390543;32;20143;-81
2021/07/09 02:20:37;;;;;;;33.40;18.23;;;;;;;;;;4390222;32;20131;-81
2021/07/09 02:23:07;;;;;;;32.65;18.25;;;;;;;;;;4390460;32;20169;-80
2021/07/09 02:25:32;;;;;;;32.75;17.70;;;;;;;;;;4390239;32;20552;-81
2021/07/09 02:27:57;;;;;;;27.33;15.85;;;;;;;;;;4398442;32;20138;-81
2021/07/09 02:30:31;;;;;;;29.63;17.00;;;;;;;;;;4405996;32;20470;-81
2021/07/09 02:32:56;;;;;;;25.25;15.20;;;;;;;;;;4406074;32;20157;-80
2021/07/09 02:35:32;;;;;;;25.52;13.85;;;;;;;;;;4392331;32;20165;-81
2021/07/09 02:37:58;;;;;;;32.22;17.05;;;;;;;;;;4406029;32;20131;-81
2021/07/09 02:40:24;;;;;;;28.90;16.10;;;;;;;;;;4405466;32;20149;-81
2021/07/09 02:42:51;;;;;;;27.23;15.10;;;;;;;;;;4405456;32;20188;-80
2021/07/09 02:45:17;;;;;;;33.83;17.75;;;;;;;;;;4391422;32;20169;-81
2021/07/09 02:47:43;;;;;;;31.75;17.90;;;;;;;;;;4405390;32;20161;-80
2021/07/09 02:50:10;;;;;;;31.00;18.52;;;;;;;;;;4405154;32;20142;-81
2021/07/09 02:52:35;;;;;;;31.15;17.52;;;;;;;;;;4391304;32;20180;-81
2021/07/09 02:55:02;;;;;;;33.67;17.92;;;;;;;;;;4404949;32;20523;-80
2021/07/09 02:57:27;;;;;;;37.42;19.10;;;;;;;;;;4405050;32;20131;-80
2021/07/09 02:59:53;;;;;;;33.90;17.58;;;;;;;;;;4405169;32;20184;-80
2021/07/09 03:02:18;;;;;;;36.05;18.77;;;;;;;;;;4405673;32;20605;-80
2021/07/09 03:04:43;;;;;;;36.53;19.23;;;;;;;;;;4404785;32;20264;-80
2021/07/09 03:07:08;;;;;;;35.60;18.80;;;;;;;;;;4391398;32;20188;-81
2021/07/09 03:09:34;;;;;;;35.00;19.23;;;;;;;;;;4404938;32;20166;-81
2021/07/09 03:11:59;;;;;;;43.47;21.00;;;;;;;;;;4404958;32;20160;-81
2021/07/09 03:14:24;;;;;;;43.70;21.85;;;;;;;;;;4405408;32;20531;-81
2021/07/09 03:16:49;;;;;;;43.17;20.75;;;;;;;;;;4404818;32;20134;-81
2021/07/09 03:19:15;;;;;;;39.65;21.30;;;;;;;;;;4404904;32;20134;-81
2021/07/09 03:21:40;;;;;;;37.53;18.67;;;;;;;;;;4405158;32;20188;-81
2021/07/09 03:24:05;;;;;;;39.30;19.48;;;;;;;;;;4391104;32;20181;-82
2021/07/09 03:26:31;;;;;;;41.85;21.15;;;;;;;;;;4404709;32;20484;-80
2021/07/09 03:29:00;;;;;;;37.20;19.08;;;;;;;;;;4405261;32;20577;-81
2021/07/09 03:31:26;;;;;;;35.83;18.90;;;;;;;;;;4406658;32;20275;-81
2021/07/09 03:33:51;;;;;;;41.13;20.52;;;;;;;;;;4407757;32;20185;-83
2021/07/09 03:36:16;;;;;;;42.47;19.65;;;;;;;;;;4407003;32;20187;-81
2021/07/09 03:38:42;;;;;;;41.25;19.25;;;;;;;;;;4393873;32;20462;-81
2021/07/09 03:41:07;;;;;;;37.35;18.73;;;;;;;;;;4408348;32;20189;-81
2021/07/09 03:43:32;;;;;;;38.33;19.17;;;;;;;;;;4381220;32;20216;-81
2021/07/09 03:45:58;;;;;;;41.58;20.45;;;;;;;;;;4407707;32;20142;-81
2021/07/09 03:48:23;;;;;;;40.10;19.55;;;;;;;;;;4407845;32;20139;-81
2021/07/09 03:50:48;;;;;;;37.25;19.45;;;;;;;;;;4394108;32;20176;-80
2021/07/09 03:53:14;;;;;;;35.05;17.80;;;;;;;;;;4408145;32;20196;-80
2021/07/09 03:55:39;;;;;;;35.53;18.77;;;;;;;;;;4400513;32;20531;-80
2021/07/09 03:58:04;;;;;;;33.88;18.42;;;;;;;;;;4393145;32;20166;-81
2021/07/09 04:00:33;;;;;;;37.63;20.12;;;;;;;;;;4391113;32;20166;-81
2021/07/09 04:02:58;;;;;;;34.05;18.65;;;;;;;;;;4393034;32;20571;-80
2021/07/09 04:05:23;;;;;;;31.73;17.45;;;;;;;;;;4398561;32;20188;-81
2021/07/09 04:07:49;;;;;;;37.70;18.42;;;;;;;;;;4393482;32;20162;-80
2021/07/09 04:10:14;;;;;;;34.13;18.25;;;;;;;;;;4398123;32;20212;-80
2021/07/09 04:12:39;;;;;;;33.63;16.83;;;;;;;;;;4390845;32;20218;-81
2021/07/09 04:15:05;;;;;;;31.42;17.23;;;;;;;;;;4392078;32;20180;-80
2021/07/09 04:17:30;;;;;;;34.42;17.92;;;;;;;;;;4398774;32;20176;-81
2021/07/09 04:19:56;;;;;;;33.45;18.12;;;;;;;;;;4407328;32;20508;-80
2021/07/09 04:22:21;;;;;;;36.65;18.15;;;;;;;;;;4407089;32;20138;-81
2021/07/09 04:24:46;;;;;;;38.13;19.35;;;;;;;;;;4389449;32;20232;-81
2021/07/09 04:27:21;;;;;;;32.85;18.27;;;;;;;;;;4392182;32;20134;-81
2021/07/09 04:29:46;;;;;;;28.80;16.75;;;;;;;;;;4378637;32;20153;-81
2021/07/09 04:32:12;;;;;;;29.77;17.00;;;;;;;;;;4392103;32;20190;-80
2021/07/09 04:34:37;;;;;;;30.37;17.40;;;;;;;;;;4378343;32;20170;-82
2021/07/09 04:37:08;;;;;;;27.45;16.20;;;;;;;;;;4391679;32;20134;-80
2021/07/09 04:39:36;;;;;;;27.98;17.10;;;;;;;;;;4391891;32;20126;-81
2021/07/09 04:42:02;;;;;;;35.33;17.33;;;;;;;;;;4377745;32;20159;-82
2021/07/09 04:44:27;;;;;;;29.75;16.62;;;;;;;;;;4391734;32;20158;-80
2021/07/09 04:46:53;;;;;;;28.23;16.75;;;;;;;;;;4390717;32;20158;-80
2021/07/09 04:49:18;;;;;;;28.58;15.15;;;;;;;;;;4391765;32;20180;-80
2021/07/09 04:51:43;;;;;;;30.65;17.02;;;;;;;;;;4391530;32;20479;-81
2021/07/09 04:54:08;;;;;;;29.37;16.12;;;;;;;;;;4391399;32;20200;-81
2021/07/09 04:56:34;;;;;;;26.20;15.07;;;;;;;;;;4391327;32;20166;-82
2021/07/09 04:59:00;;;;;;;25.45;14.70;;;;;;;;;;4391393;32;20200;-81
2021/07/09 05:01:25;;;;;;;28.62;15.38;;;;;;;;;;4391598;32;20173;-81
2021/07/09 05:03:50;;;;;;;25.50;14.18;;;;;;;;;;4390505;32;20178;-80
2021/07/09 05:06:16;;;;;;;29.10;14.48;;;;;;;;;;4391521;32;20189;-80
2021/07/09 05:08:41;;;;;;;30.27;16.02;;;;;;;;;;4400261;32;20632;-81
2021/07/09 05:11:06;;;;;;;22.87;12.80;;;;;;;;;;4406489;32;20474;-81
2021/07/09 05:13:31;;;;;;;22.00;13.23;;;;;;;;;;4391145;32;20165;-79
2021/07/09 05:15:57;;;;;;;23.17;13.30;;;;;;;;;;4391072;32;20139;-80
2021/07/09 05:18:22;;;;;;;21.67;12.98;;;;;;;;;;4391904;32;20647;-81
2021/07/09 05:20:48;;;;;;;22.35;13.32;;;;;;;;;;4391370;32;20138;-80
2021/07/09 05:23:13;;;;;;;25.95;13.88;;;;;;;;;;4391174;32;20131;-80
2021/07/09 05:25:39;;;;;;;23.30;13.45;;;;;;;;;;4392072;32;20197;-80
2021/07/09 05:28:06;;;;;;;26.12;13.93;;;;;;;;;;4406902;32;20546;-81
2021/07/09 05:30:31;;;;;;;24.77;13.95;;;;;;;;;;4392337;32;20188;-80
2021/07/09 05:32:57;;;;;;;21.08;12.63;;;;;;;;;;4392544;32;20178;-81
2021/07/09 05:35:22;;;;;;;19.80;12.60;;;;;;;;;;4406813;32;20146;-81
2021/07/09 05:37:47;;;;;;;20.90;12.45;;;;;;;;;;4405690;32;20150;-79
2021/07/09 05:40:16;;;;;;;27.67;14.82;;;;;;;;;;4406884;32;20143;-78
2021/07/09 05:42:41;;;;;;;29.40;15.07;;;;;;;;;;4405697;32;20146;-80
2021/07/09 05:45:07;;;;;;;29.70;14.77;;;;;;;;;;4392596;32;20241;-78
2021/07/09 05:47:32;;;;;;;25.60;14.93;;;;;;;;;;4389603;32;20189;-81
2021/07/09 05:49:57;;;;;;;24.53;15.00;;;;;;;;;;4389740;32;20217;-79
2021/07/09 05:52:22;;;;;;;24.12;13.45;;;;;;;;;;4390837;32;20276;-79
2021/07/09 05:54:48;;;;;;;24.23;14.40;;;;;;;;;;4390630;32;20464;-80
2021/07/09 05:57:13;;;;;;;24.67;13.80;;;;;;;;;;4390576;32;20138;-81
2021/07/09 05:59:38;;;;;;;22.13;12.90;;;;;;;;;;4402003;32;20158;-80
2021/07/09 06:02:04;;;;;;;22.35;12.75;;;;;;;;;;4391917;32;20162;-81
2021/07/09 06:04:29;;;;;;;21.12;12.80;;;;;;;;;;4393126;32;20276;-73
2021/07/09 06:06:54;;;;;;;23.60;14.00;;;;;;;;;;4390381;32;20235;-80
2021/07/09 06:09:20;;;;;;;24.65;14.07;;;;;;;;;;4390530;32;20138;-79
2021/07/09 06:11:45;;;;;;;22.77;13.75;;;;;;;;;;4390777;32;20135;-80
2021/07/09 06:14:10;;;;;;;26.23;14.25;;;;;;;;;;4390720;32;20138;-80
2021/07/09 06:16:38;;;;;;;22.00;13.40;;;;;;;;;;4391571;32;20481;-79
2021/07/09 06:19:04;;;;;;;24.63;13.30;;;;;;;;;;4404312;32;20174;-80
2021/07/09 06:21:29;;;;;;;28.73;14.20;;;;;;;;;;4405417;32;20138;-79
2021/07/09 06:23:54;;;;;;;27.48;15.27;;;;;;;;;;4395297;32;20201;-79
2021/07/09 06:26:20;;;;;;;24.80;15.27;;;;;;;;;;4391070;32;20193;-79
2021/07/09 06:28:48;;;;;;;28.17;15.88;;;;;;;;;;4390408;32;20158;-80
2021/07/09 06:31:14;;;;;;;28.83;16.30;;;;;;;;;;4390453;32;20176;-80
2021/07/09 06:33:39;;;;;;;26.48;15.63;;;;;;;;;;4390622;32;20544;-81
2021/07/09 06:36:04;;;;;;;27.92;16.05;;;;;;;;;;4390672;32;20231;-77
2021/07/09 06:38:30;;;;;;;27.83;14.30;;;;;;;;;;4394603;32;20482;-79
2021/07/09 06:40:55;;;;;;;25.37;14.32;;;;;;;;;;4390753;32;20575;-80
2021/07/09 06:43:20;;;;;;;27.90;14.13;;;;;;;;;;4404863;32;20169;-76
2021/07/09 06:45:46;;;;;;;25.15;14.93;;;;;;;;;;4396798;32;20165;-80
2021/07/09 06:48:11;;;;;;;27.75;15.25;;;;;;;;;;4405729;32;20161;-76
2021/07/09 06:50:36;;;;;;;26.20;14.23;;;;;;;;;;4401223;32;20142;-78
2021/07/09 06:53:03;;;;;;;25.65;14.15;;;;;;;;;;4398982;32;20207;-79
2021/07/09 06:55:28;;;;;;;25.85;14.50;;;;;;;;;;4391507;32;20216;-85
2021/07/09 06:57:53;;;;;;;23.77;14.85;;;;;;;;;;4401955;32;20138;-85
2021/07/09 07:00:19;;;;;;;25.25;15.35;;;;;;;;;;4391575;32;20193;-85
2021/07/09 07:02:45;;;;;;;31.42;16.37;;;;;;;;;;4400457;32;20174;-85
2021/07/09 07:05:10;;;;;;;32.63;16.65;;;;;;;;;;4389338;32;20537;-83
2021/07/09 07:07:36;;;;;;;30.27;15.15;;;;;;;;;;4392756;32;20131;-83
2021/07/09 07:10:02;;;;;;;22.80;11.80;;;;;;;;;;4393223;32;20534;-85
2021/07/09 07:12:27;;;;;;;21.98;13.02;;;;;;;;;;4393528;32;20162;-85
2021/07/09 07:14:53;;;;;;;23.75;12.85;;;;;;;;;;4392653;32;20165;-84
2021/07/09 07:17:19;;;;;;;21.12;12.95;;;;;;;;;;4393242;32;20499;-83
2021/07/09 07:19:44;;;;;;;21.05;12.95;;;;;;;;;;4392951;32;20751;-85
2021/07/09 07:22:10;;;;;;;17.42;10.55;;;;;;;;;;4392481;32;20200;-83
2021/07/09 07:24:35;;;;;;;20.50;11.45;;;;;;;;;;4392867;32;20232;-84
2021/07/09 07:27:00;;;;;;;21.35;11.57;;;;;;;;;;4392877;32;20484;-83
2021/07/09 07:29:26;;;;;;;20.08;12.02;;;;;;;;;;4386548;32;20220;-84
2021/07/09 07:31:51;;;;;;;19.17;12.00;;;;;;;;;;4393153;32;20517;-83
2021/07/09 07:34:17;;;;;;;19.87;12.43;;;;;;;;;;4378723;32;20594;-84
2021/07/09 07:36:42;;;;;;;20.12;12.50;;;;;;;;;;4392010;32;20150;-84
2021/07/09 07:39:07;;;;;;;22.37;12.55;;;;;;;;;;4392501;32;20498;-82
2021/07/09 07:41:33;;;;;;;20.65;12.75;;;;;;;;;;4392159;32;20572;-82
2021/07/09 07:43:58;;;;;;;22.17;12.77;;;;;;;;;;4379901;32;20250;-85
2021/07/09 07:46:27;;;;;;;19.98;13.18;;;;;;;;;;4392394;32;20151;-84
2021/07/09 07:48:53;;;;;;;19.08;11.63;;;;;;;;;;4391659;32;20154;-75
2021/07/09 07:51:18;;;;;;;20.70;12.02;;;;;;;;;;4387288;32;20138;-76
2021/07/09 07:53:43;;;;;;;20.30;12.37;;;;;;;;;;4376236;32;20139;-78
2021/07/09 07:56:09;;;;;;;22.52;12.18;;;;;;;;;;4376764;32;20162;-79
2021/07/09 07:58:37;;;;;;;20.77;12.57;;;;;;;;;;4377481;32;20634;-78
2021/07/09 08:01:03;;;;;;;22.70;13.02;;;;;;;;;;4364213;32;20240;-78
2021/07/09 08:03:28;;;;;;;23.02;13.20;;;;;;;;;;4377082;32;20579;-76
2021/07/09 08:05:54;;;;;;;21.37;13.88;;;;;;;;;;4383258;32;20166;-77
2021/07/09 08:08:19;;;;;;;23.12;14.75;;;;;;;;;;4391939;32;20495;-77
2021/07/09 08:10:44;;;;;;;21.52;13.02;;;;;;;;;;4391781;32;20166;-77
2021/07/09 08:13:10;;;;;;;23.23;12.82;;;;;;;;;;4392294;32;20203;-77
2021/07/09 08:15:35;;;;;;;19.20;12.15;;;;;;;;;;4390028;32;20594;-80
2021/07/09 08:18:00;;;;;;;18.00;11.90;;;;;;;;;;4384403;32;20600;-77
2021/07/09 08:20:25;;;;;;;19.83;11.30;;;;;;;;;;4391042;32;20533;-77
2021/07/09 08:22:51;;;;;;;22.42;11.18;;;;;;;;;;4391310;32;20215;-80
2021/07/09 08:25:16;;;;;;;22.37;13.62;;;;;;;;;;4390329;32;20201;-80
2021/07/09 08:27:42;;;;;;;22.05;11.80;;;;;;;;;;4392348;32;20169;-77
2021/07/09 08:30:08;;;;;;;18.30;11.80;;;;;;;;;;4378451;32;20231;-80
2021/07/09 08:32:33;;;;;;;16.90;10.05;;;;;;;;;;4378862;32;20158;-79
2021/07/09 08:35:05;;;;;;;17.73;10.98;;;;;;;;;;4394940;32;20176;-81
2021/07/09 08:37:30;;;;;;;16.70;10.40;;;;;;;;;;4401426;32;20201;-78
2021/07/09 08:39:56;;;;;;;15.50;10.65;;;;;;;;;;4392785;32;20613;-81
2021/07/09 08:42:21;;;;;;;15.95;9.65;;;;;;;;;;4407150;32;20168;-81
2021/07/09 08:44:46;;;;;;;20.53;11.50;;;;;;;;;;4406588;32;20644;-79
2021/07/09 08:47:12;;;;;;;17.45;10.70;;;;;;;;;;4391954;32;20270;-78
2021/07/09 08:49:37;;;;;;;14.45;9.00;;;;;;;;;;4406846;32;20534;-79
2021/07/09 08:52:03;;;;;;;15.57;10.25;;;;;;;;;;4406644;32;20157;-79
2021/07/09 08:54:28;;;;;;;17.52;9.63;;;;;;;;;;4406452;32;20139;-79
2021/07/09 08:56:53;;;;;;;14.98;9.23;;;;;;;;;;4392640;32;20166;-79
2021/07/09 08:59:20;;;;;;;18.40;10.65;;;;;;;;;;4406644;32;20157;-76
2021/07/09 09:01:49;;;;;;;15.10;10.23;;;;;;;;;;4406786;32;20234;-79
2021/07/09 09:04:24;;;;;;;15.02;8.95;;;;;;;;;;4406694;32;20176;-80
2021/07/09 09:07:00;;;;;;;11.85;8.15;;;;;;;;;;4406515;32;20169;-78
2021/07/09 09:09:25;;;;;;;13.62;8.48;;;;;;;;;;4406785;32;20192;-80
2021/07/09 09:12:00;;;;;;;10.80;7.82;;;;;;;;;;4406505;32;20141;-77
2021/07/09 09:14:26;;;;;;;13.88;8.38;;;;;;;;;;4407212;32;20138;-78
2021/07/09 09:16:51;;;;;;;13.45;8.60;;;;;;;;;;4406382;32;20134;-78
2021/07/09 09:19:21;;;;;;;14.25;8.05;;;;;;;;;;4392327;32;20162;-80
2021/07/09 09:21:46;;;;;;;12.55;8.48;;;;;;;;;;4406199;32;20184;-79
2021/07/09 09:24:11;;;;;;;13.55;8.73;;;;;;;;;;4392582;32;20166;-79
2021/07/09 09:26:47;;;;;;;13.77;9.40;;;;;;;;;;4406191;32;20157;-80
2021/07/09 09:29:13;;;;;;;11.18;8.07;;;;;;;;;;4404885;32;20138;-76
2021/07/09 09:31:40;;;;;;;11.40;7.50;;;;;;;;;;4406104;32;20142;-77
2021/07/09 09:34:06;;;;;;;13.15;8.43;;;;;;;;;;4406071;32;20185;-78
2021/07/09 09:36:31;;;;;;;12.55;8.05;;;;;;;;;;4406160;32;20191;-79
2021/07/09 09:39:02;;;;;;;13.52;8.55;;;;;;;;;;4396236;32;20150;-80
2021/07/09 09:41:28;;;;;;;14.90;9.00;;;;;;;;;;4390859;32;20142;-79
2021/07/09 09:43:54;;;;;;;8.77;6.75;;;;;;;;;;4396104;32;20173;-80
2021/07/09 09:48:37;;;;;;;11.50;7.10;;;;;;;;;;4370200;32;20717;-80
2021/07/09 09:51:03;;;;;;;10.90;7.50;;;;;;;;;;4368850;32;20580;-79
2021/07/09 09:53:33;;;;;;;10.02;7.10;;;;;;;;;;4368909;32;20159;-80
2021/07/09 09:56:06;;;;;;;7.68;5.90;;;;;;;;;;4370469;32;20560;-80
2021/07/09 09:58:31;;;;;;;8.80;5.07;;;;;;;;;;4370986;32;20248;-80
2021/07/09 10:00:57;;;;;;;10.23;5.85;;;;;;;;;;4369878;32;20151;-80
2021/07/09 10:03:22;;;;;;;12.80;7.85;;;;;;;;;;4370379;32;20150;-79
2021/07/09 10:05:48;;;;;;;12.60;7.00;;;;;;;;;;4369363;32;20197;-79
2021/07/09 10:08:15;;;;;;;9.30;7.03;;;;;;;;;;4370265;32;20491;-79
2021/07/09 10:10:41;;;;;;;10.50;8.00;;;;;;;;;;4371016;32;20142;-78
2021/07/09 10:13:07;;;;;;;10.30;7.65;;;;;;;;;;4370859;32;20131;-79
2021/07/09 10:15:33;;;;;;;10.40;7.43;;;;;;;;;;4370589;32;20139;-80
2021/07/09 10:17:59;;;;;;;11.70;7.53;;;;;;;;;;4369321;32;20185;-80
2021/07/09 10:20:25;;;;;;;10.85;7.62;;;;;;;;;;4370954;32;20256;-79
2021/07/09 10:22:50;;;;;;;11.48;7.45;;;;;;;;;;4370677;32;20155;-77
2021/07/09 10:25:16;;;;;;;13.05;8.32;;;;;;;;;;4370716;32;20132;-81
2021/07/09 10:27:45;;;;;;;11.77;8.13;;;;;;;;;;4370385;32;20203;-80
2021/07/09 10:30:11;;;;;;;13.18;7.15;;;;;;;;;;4370993;32;20162;-78
2021/07/09 10:32:36;;;;;;;10.20;6.62;;;;;;;;;;4370214;32;20151;-79
2021/07/09 10:35:06;;;;;;;11.43;6.62;;;;;;;;;;4369990;32;20514;-80
2021/07/09 10:37:31;;;;;;;8.65;5.87;;;;;;;;;;4371695;32;20544;-80
2021/07/09 10:40:12;;;;;;;11.20;6.12;;;;;;;;;;4371021;32;20205;-78
2021/07/09 10:42:41;;;;;;;7.25;5.95;;;;;;;;;;4374012;32;20181;-80
2021/07/09 10:45:14;;;;;;;9.40;6.53;;;;;;;;;;4373080;32;20166;-81
2021/07/09 10:47:39;;;;;;;9.30;6.80;;;;;;;;;;4371431;32;20154;-80
2021/07/09 10:50:09;;;;;;;10.52;7.62;;;;;;;;;;4370124;32;20161;-79
2021/07/09 10:52:45;;;;;;;10.55;7.32;;;;;;;;;;4370815;32;20453;-79
2021/07/09 10:55:26;;;;;;;12.20;7.22;;;;;;;;;;4369773;32;20126;-80
2021/07/09 10:58:19;;;;;;;9.75;6.75;;;;;;;;;;4368434;32;20164;-79
2021/07/09 11:00:47;;;;;;;8.77;6.53;;;;;;;;;;4360221;32;20158;-81
2021/07/09 11:03:31;;;;;;;10.55;6.85;;;;;;;;;;4359589;33;20445;-80
2021/07/09 11:06:06;;;;;;;10.93;6.62;;;;;;;;;;4360381;33;20189;-79
2021/07/09 11:08:32;;;;;;;8.30;6.62;;;;;;;;;;4355081;33;20229;-81
2021/07/09 11:11:01;;;;;;;11.07;7.07;;;;;;;;;;4345631;33;20166;-79
2021/07/09 11:13:45;;;;;;;10.48;6.97;;;;;;;;;;4345157;33;20257;-80
2021/07/09 11:16:32;;;;;;;11.50;8.27;;;;;;;;;;4359298;33;20155;-80
2021/07/09 11:18:57;;;;;;;10.20;7.75;;;;;;;;;;4360126;32;20181;-79
2021/07/09 11:21:34;;;;;;;11.07;7.68;;;;;;;;;;4359663;32;20487;-78
2021/07/09 11:24:09;;;;;;;9.50;6.85;;;;;;;;;;4359365;33;20135;-79
2021/07/09 11:26:40;;;;;;;10.82;7.47;;;;;;;;;;4358502;33;20178;-79
2021/07/09 11:29:23;;;;;;;9.70;7.37;;;;;;;;;;4360060;32;20127;-81
2021/07/09 11:31:49;;;;;;;11.95;7.78;;;;;;;;;;4359126;32;20212;-80
2021/07/09 11:34:16;;;;;;;12.05;7.75;;;;;;;;;;4359196;32;20131;-79
2021/07/09 11:36:42;;;;;;;9.75;6.68;;;;;;;;;;4360077;32;20582;-79
2021/07/09 11:39:09;;;;;;;10.05;6.53;;;;;;;;;;4359330;32;20162;-79
2021/07/09 11:41:46;;;;;;;9.57;6.60;;;;;;;;;;4359606;32;20559;-80
2021/07/09 11:44:12;;;;;;;10.55;6.60;;;;;;;;;;4359550;32;20132;-80
2021/07/09 11:46:37;;;;;;;10.25;6.35;;;;;;;;;;4359069;32;20479;-79
2021/07/09 11:49:06;;;;;;;10.75;6.50;;;;;;;;;;4357074;33;20220;-79
2021/07/09 11:51:31;;;;;;;11.65;6.68;;;;;;;;;;4349863;33;20205;-79
2021/07/09 11:54:06;;;;;;;12.60;6.70;;;;;;;;;;4354079;33;20608;-81
2021/07/09 11:56:40;;;;;;;9.93;7.22;;;;;;;;;;4344081;33;20311;-79
2021/07/09 11:59:16;;;;;;;10.68;7.40;;;;;;;;;;4342713;33;20217;-80
2021/07/09 12:01:41;;;;;;;10.65;7.50;;;;;;;;;;4345711;33;20161;-80
2021/07/09 12:04:07;;;;;;;12.05;7.37;;;;;;;;;;4359321;33;20163;-80
2021/07/09 12:06:32;;;;;;;12.18;8.55;;;;;;;;;;4358980;33;20162;-78
2021/07/09 12:09:03;;;;;;;11.95;8.70;;;;;;;;;;4358848;33;20126;-80
2021/07/09 12:11:28;;;;;;;11.90;8.40;;;;;;;;;;4358305;32;20159;-79
2021/07/09 12:14:20;;;;;;;13.47;8.70;;;;;;;;;;4359181;33;20127;-80
2021/07/09 12:16:48;;;;;;;13.65;9.68;;;;;;;;;;4356857;32;20319;-79
2021/07/09 12:19:13;;;;;;;12.15;9.13;;;;;;;;;;4358623;33;20198;-81
2021/07/09 12:21:39;;;;;;;16.23;11.98;;;;;;;;;;4359533;33;20150;-79
2021/07/09 12:24:05;;;;;;;16.98;12.27;;;;;;;;;;4358644;32;20178;-79
2021/07/09 12:26:31;;;;;;;16.33;12.48;;;;;;;;;;4359077;32;20136;-78
2021/07/09 12:28:56;;;;;;;19.40;12.93;;;;;;;;;;4358607;32;20161;-78
2021/07/09 12:31:22;;;;;;;17.95;12.88;;;;;;;;;;4359156;32;20155;-79
2021/07/09 12:33:51;;;;;;;15.05;12.55;;;;;;;;;;4358989;32;20180;-80
2021/07/09 12:36:17;;;;;;;14.77;12.37;;;;;;;;;;4358783;32;20139;-80
2021/07/09 12:38:43;;;;;;;18.92;12.07;;;;;;;;;;4358326;32;20176;-79
2021/07/09 12:41:12;;;;;;;17.62;11.98;;;;;;;;;;4358062;32;20562;-78
2021/07/09 12:43:45;;;;;;;16.77;12.48;;;;;;;;;;4358101;32;20128;-79
2021/07/09 12:46:12;;;;;;;16.33;12.20;;;;;;;;;;4358959;32;20471;-79
2021/07/09 12:48:39;;;;;;;13.98;11.25;;;;;;;;;;4358316;32;20151;-79
2021/07/09 12:51:34;;;;;;;16.20;12.50;;;;;;;;;;4358669;32;20161;-81
2021/07/09 12:54:01;;;;;;;14.07;11.00;;;;;;;;;;4364790;32;20167;-80
2021/07/09 12:56:29;;;;;;;14.98;11.12;;;;;;;;;;4358419;32;20200;-80
2021/07/09 12:59:00;;;;;;;14.35;10.25;;;;;;;;;;4358644;32;20222;-80
2021/07/09 13:01:26;;;;;;;12.37;10.27;;;;;;;;;;4359229;32;20252;-78
2021/07/09 13:03:51;;;;;;;14.20;10.68;;;;;;;;;;4352394;32;20140;-81
2021/07/09 13:06:19;;;;;;;12.40;9.32;;;;;;;;;;4343765;33;20167;-78
2021/07/09 13:08:45;;;;;;;13.13;9.77;;;;;;;;;;4355111;33;20201;-80
2021/07/09 13:11:21;;;;;;;13.85;9.60;;;;;;;;;;4358289;32;20166;-77
2021/07/09 13:13:50;;;;;;;10.60;8.18;;;;;;;;;;4358060;32;20136;-82
2021/07/09 13:16:16;;;;;;;11.63;9.80;;;;;;;;;;4358221;32;20237;-78
2021/07/09 13:18:48;;;;;;;12.52;8.90;;;;;;;;;;4357173;33;20564;-80
2021/07/09 13:21:23;;;;;;;10.60;8.40;;;;;;;;;;4357209;32;20156;-79
2021/07/09 13:24:08;;;;;;;13.98;9.43;;;;;;;;;;4349683;33;20158;-80
2021/07/09 13:26:37;;;;;;;10.95;8.25;;;;;;;;;;4348752;33;20629;-80
2021/07/09 13:29:03;;;;;;;9.20;7.35;;;;;;;;;;4357711;32;20161;-78
2021/07/09 13:31:29;;;;;;;9.00;7.97;;;;;;;;;;4358326;32;20495;-76
2021/07/09 13:33:54;;;;;;;12.40;7.90;;;;;;;;;;4357792;32;20154;-80
2021/07/09 13:36:32;;;;;;;12.20;8.77;;;;;;;;;;4356336;33;20167;-80
2021/07/09 13:39:05;;;;;;;10.75;8.88;;;;;;;;;;4357947;32;20203;-81
2021/07/09 13:41:30;;;;;;;11.40;9.32;;;;;;;;;;4358600;32;20150;-79
2021/07/09 13:43:56;;;;;;;10.35;8.63;;;;;;;;;;4357844;32;20135;-80
2021/07/09 13:46:22;;;;;;;10.38;8.35;;;;;;;;;;4357787;33;20132;-79
2021/07/09 13:48:47;;;;;;;10.65;6.95;;;;;;;;;;4356922;33;20175;-79
2021/07/09 13:51:15;;;;;;;11.70;7.80;;;;;;;;;;4353484;33;20226;-81
2021/07/09 13:53:41;;;;;;;15.35;8.70;;;;;;;;;;4352322;32;20615;-80
2021/07/09 13:56:06;;;;;;;11.35;8.60;;;;;;;;;;4342873;33;20140;-79
2021/07/09 13:58:31;;;;;;;11.20;7.07;;;;;;;;;;4343379;33;20494;-80
2021/07/09 14:00:57;;;;;;;9.52;8.45;;;;;;;;;;4343942;33;20182;-80
2021/07/09 14:03:24;;;;;;;12.43;7.83;;;;;;;;;;4343283;33;20155;-79
2021/07/09 14:05:49;;;;;;;9.73;7.32;;;;;;;;;;4342363;33;20639;-80
2021/07/09 14:08:14;;;;;;;8.98;6.97;;;;;;;;;;4349609;32;20159;-81
2021/07/09 14:10:42;;;;;;;8.63;7.00;;;;;;;;;;4349423;33;20219;-80
2021/07/09 14:13:07;;;;;;;7.97;6.40;;;;;;;;;;4342473;33;20306;-79
2021/07/09 14:15:33;;;;;;;12.35;7.78;;;;;;;;;;4347384;33;20574;-77
2021/07/09 14:17:59;;;;;;;11.15;6.68;;;;;;;;;;4349520;33;20143;-81
2021/07/09 14:20:24;;;;;;;7.45;6.18;;;;;;;;;;4356651;32;20135;-79
2021/07/09 14:22:50;;;;;;;9.00;7.78;;;;;;;;;;4346282;32;20143;-76
2021/07/09 14:25:16;;;;;;;9.80;6.78;;;;;;;;;;4349353;32;20862;-80